sensor_id;sensor_type;location;lat;lon;timestamp;temperature;humidity
2999;DHT22;1509;51.964;7.628;2023-04-03T00:01:37;5.10;99.90
2999;DHT22;1509;51.964;7.628;2023-04-03T00:04:07;5.10;99.90
2999;DHT22;1509;51.964;7.628;2023-04-03T00:06:33;5.00;99.90
2999;DHT22;1509;51.964;7.628;2023-04-03T00:08:59;5.00;99.90
2999;DHT22;1509;51.964;7.628;2023-04-03T00:11:24;4.90;99.90
2999;DHT22;1509;51.964;7.628;2023-04-03T00:13:50;4.90;99.90
2999;DHT22;1509;51.964;7.628;2023-04-03T00:16:16;4.90;99.90
2999;DHT22;1509;51.964;7.628;2023-04-03T00:18:42;4.90;99.90
2999;DHT22;1509;51.964;7.628;2023-04-03T00:21:09;4.80;99.90
2999;DHT22;1509;51.964;7.628;2023-04-03T00:23:37;4.80;99.90
2999;DHT22;1509;51.964;7.628;2023-04-03T00:26:03;5.20;99.90
2999;DHT22;1509;51.964;7.628;2023-04-03T00:28:29;4.70;99.90
2999;DHT22;1509;51.964;7.628;2023-04-03T00:30:54;4.70;99.90
2999;DHT22;1509;51.964;7.628;2023-04-03T00:33:20;4.60;99.90
2999;DHT22;1509;51.964;7.628;2023-04-03T00:35:47;4.80;99.90
2999;DHT22;1509;51.964;7.628;2023-04-03T00:38:14;4.60;99.90
2999;DHT22;1509;51.964;7.628;2023-04-03T00:40:43;4.50;99.90
2999;DHT22;1509;51.964;7.628;2023-04-03T00:43:13;4.50;99.90
2999;DHT22;1509;51.964;7.628;2023-04-03T00:45:41;4.80;99.90
2999;DHT22;1509;51.964;7.628;2023-04-03T00:48:11;4.40;99.90
2999;DHT22;1509;51.964;7.628;2023-04-03T00:50:40;4.40;99.90
2999;DHT22;1509;51.964;7.628;2023-04-03T00:53:10;4.40;99.90
2999;DHT22;1509;51.964;7.628;2023-04-03T00:55:37;4.40;99.90
2999;DHT22;1509;51.964;7.628;2023-04-03T00:58:04;4.50;99.90
2999;DHT22;1509;51.964;7.628;2023-04-03T01:00:32;4.30;99.90
2999;DHT22;1509;51.964;7.628;2023-04-03T01:02:58;4.60;99.90
2999;DHT22;1509;51.964;7.628;2023-04-03T01:05:25;4.20;99.90
2999;DHT22;1509;51.964;7.628;2023-04-03T01:07:51;4.20;99.90
2999;DHT22;1509;51.964;7.628;2023-04-03T01:10:18;4.20;99.90
2999;DHT22;1509;51.964;7.628;2023-04-03T01:12:48;4.10;99.90
2999;DHT22;1509;51.964;7.628;2023-04-03T01:15:23;4.10;99.90
2999;DHT22;1509;51.964;7.628;2023-04-03T01:17:54;4.10;99.90
2999;DHT22;1509;51.964;7.628;2023-04-03T01:25:50;3.90;99.90
2999;DHT22;1509;51.964;7.628;2023-04-03T01:28:22;3.90;99.90
2999;DHT22;1509;51.964;7.628;2023-04-03T01:31:02;3.90;99.90
2999;DHT22;1509;51.964;7.628;2023-04-03T01:33:32;3.90;99.90
2999;DHT22;1509;51.964;7.628;2023-04-03T01:35:58;3.80;99.90
2999;DHT22;1509;51.964;7.628;2023-04-03T01:38:23;3.80;99.90
2999;DHT22;1509;51.964;7.628;2023-04-03T01:40:50;3.80;99.90
2999;DHT22;1509;51.964;7.628;2023-04-03T01:43:15;3.70;99.90
2999;DHT22;1509;51.964;7.628;2023-04-03T01:45:41;3.70;99.90
2999;DHT22;1509;51.964;7.628;2023-04-03T01:48:07;3.70;99.90
2999;DHT22;1509;51.964;7.628;2023-04-03T01:50:36;3.70;99.90
2999;DHT22;1509;51.964;7.628;2023-04-03T01:53:01;3.60;99.90
2999;DHT22;1509;51.964;7.628;2023-04-03T01:55:27;3.70;99.90
2999;DHT22;1509;51.964;7.628;2023-04-03T01:57:52;3.60;99.90
2999;DHT22;1509;51.964;7.628;2023-04-03T02:00:18;3.70;99.90
2999;DHT22;1509;51.964;7.628;2023-04-03T02:02:44;3.50;99.90
2999;DHT22;1509;51.964;7.628;2023-04-03T02:05:12;3.60;99.90
2999;DHT22;1509;51.964;7.628;2023-04-03T02:07:38;3.40;99.90
2999;DHT22;1509;51.964;7.628;2023-04-03T02:10:04;3.30;99.90
2999;DHT22;1509;51.964;7.628;2023-04-03T02:12:30;3.30;99.90
2999;DHT22;1509;51.964;7.628;2023-04-03T02:14:55;3.30;99.90
2999;DHT22;1509;51.964;7.628;2023-04-03T02:17:21;3.30;99.90
2999;DHT22;1509;51.964;7.628;2023-04-03T02:19:46;3.20;99.90
2999;DHT22;1509;51.964;7.628;2023-04-03T02:22:12;3.20;99.90
2999;DHT22;1509;51.964;7.628;2023-04-03T02:24:38;3.20;99.90
2999;DHT22;1509;51.964;7.628;2023-04-03T02:27:05;3.20;99.90
2999;DHT22;1509;51.964;7.628;2023-04-03T02:29:31;3.20;99.90
2999;DHT22;1509;51.964;7.628;2023-04-03T02:31:56;3.10;99.90
2999;DHT22;1509;51.964;7.628;2023-04-03T02:34:24;3.10;99.90
2999;DHT22;1509;51.964;7.628;2023-04-03T02:36:50;3.10;99.90
2999;DHT22;1509;51.964;7.628;2023-04-03T02:39:16;3.10;99.90
2999;DHT22;1509;51.964;7.628;2023-04-03T02:41:41;3.10;99.90
2999;DHT22;1509;51.964;7.628;2023-04-03T02:44:09;3.00;99.90
2999;DHT22;1509;51.964;7.628;2023-04-03T02:46:35;3.00;99.90
2999;DHT22;1509;51.964;7.628;2023-04-03T02:49:01;3.00;99.90
2999;DHT22;1509;51.964;7.628;2023-04-03T02:51:27;2.90;99.90
2999;DHT22;1509;51.964;7.628;2023-04-03T02:53:52;2.90;99.90
2999;DHT22;1509;51.964;7.628;2023-04-03T02:56:18;2.80;99.90
2999;DHT22;1509;51.964;7.628;2023-04-03T02:58:47;3.10;99.90
2999;DHT22;1509;51.964;7.628;2023-04-03T03:01:13;2.80;99.90
2999;DHT22;1509;51.964;7.628;2023-04-03T03:03:39;2.70;99.90
2999;DHT22;1509;51.964;7.628;2023-04-03T03:06:10;2.70;99.90
2999;DHT22;1509;51.964;7.628;2023-04-03T03:08:40;2.60;99.90
2999;DHT22;1509;51.964;7.628;2023-04-03T03:11:06;2.70;99.90
2999;DHT22;1509;51.964;7.628;2023-04-03T03:13:34;2.60;99.90
2999;DHT22;1509;51.964;7.628;2023-04-03T03:16:00;2.60;99.90
2999;DHT22;1509;51.964;7.628;2023-04-03T03:18:29;2.60;99.90
2999;DHT22;1509;51.964;7.628;2023-04-03T03:20:59;2.60;99.90
2999;DHT22;1509;51.964;7.628;2023-04-03T03:23:27;2.60;99.90
2999;DHT22;1509;51.964;7.628;2023-04-03T03:26:01;2.50;99.90
2999;DHT22;1509;51.964;7.628;2023-04-03T03:28:27;2.50;99.90
2999;DHT22;1509;51.964;7.628;2023-04-03T03:30:52;2.40;99.90
2999;DHT22;1509;51.964;7.628;2023-04-03T03:33:18;2.40;99.90
2999;DHT22;1509;51.964;7.628;2023-04-03T03:35:45;2.40;99.90
2999;DHT22;1509;51.964;7.628;2023-04-03T03:38:11;2.40;99.90
2999;DHT22;1509;51.964;7.628;2023-04-03T03:40:36;2.30;99.90
2999;DHT22;1509;51.964;7.628;2023-04-03T03:43:02;2.30;99.90
2999;DHT22;1509;51.964;7.628;2023-04-03T03:45:28;2.30;99.90
2999;DHT22;1509;51.964;7.628;2023-04-03T03:47:53;2.30;99.90
2999;DHT22;1509;51.964;7.628;2023-04-03T03:50:19;2.20;99.90
2999;DHT22;1509;51.964;7.628;2023-04-03T03:52:45;2.30;99.90
2999;DHT22;1509;51.964;7.628;2023-04-03T03:55:11;2.20;99.90
2999;DHT22;1509;51.964;7.628;2023-04-03T03:57:37;2.20;99.90
2999;DHT22;1509;51.964;7.628;2023-04-03T04:00:03;2.20;99.90
2999;DHT22;1509;51.964;7.628;2023-04-03T04:02:29;2.20;99.90
2999;DHT22;1509;51.964;7.628;2023-04-03T04:04:56;2.20;99.90
2999;DHT22;1509;51.964;7.628;2023-04-03T04:07:22;2.10;99.90
2999;DHT22;1509;51.964;7.628;2023-04-03T04:09:47;2.50;99.90
2999;DHT22;1509;51.964;7.628;2023-04-03T04:12:13;2.10;99.90
2999;DHT22;1509;51.964;7.628;2023-04-03T04:14:42;2.10;99.90
2999;DHT22;1509;51.964;7.628;2023-04-03T04:17:07;2.00;99.90
2999;DHT22;1509;51.964;7.628;2023-04-03T04:19:33;2.40;99.90
2999;DHT22;1509;51.964;7.628;2023-04-03T04:21:59;1.90;99.90
2999;DHT22;1509;51.964;7.628;2023-04-03T04:24:27;1.90;99.90
2999;DHT22;1509;51.964;7.628;2023-04-03T04:26:53;1.80;99.90
2999;DHT22;1509;51.964;7.628;2023-04-03T04:29:18;2.10;99.90
2999;DHT22;1509;51.964;7.628;2023-04-03T04:31:44;1.70;99.90
2999;DHT22;1509;51.964;7.628;2023-04-03T04:34:13;1.70;99.90
2999;DHT22;1509;51.964;7.628;2023-04-03T04:36:39;1.70;99.90
2999;DHT22;1509;51.964;7.628;2023-04-03T04:39:05;1.70;99.90
2999;DHT22;1509;51.964;7.628;2023-04-03T04:41:31;1.70;99.90
2999;DHT22;1509;51.964;7.628;2023-04-03T04:43:59;1.70;99.90
2999;DHT22;1509;51.964;7.628;2023-04-03T04:46:25;1.60;99.90
2999;DHT22;1509;51.964;7.628;2023-04-03T04:48:51;1.60;99.90
2999;DHT22;1509;51.964;7.628;2023-04-03T04:51:17;1.80;99.90
2999;DHT22;1509;51.964;7.628;2023-04-03T04:53:43;1.60;99.90
2999;DHT22;1509;51.964;7.628;2023-04-03T04:56:09;1.50;99.90
2999;DHT22;1509;51.964;7.628;2023-04-03T04:58:35;1.50;99.90
2999;DHT22;1509;51.964;7.628;2023-04-03T05:01:05;1.50;99.90
2999;DHT22;1509;51.964;7.628;2023-04-03T05:03:32;1.50;99.90
2999;DHT22;1509;51.964;7.628;2023-04-03T05:05:57;1.50;99.90
2999;DHT22;1509;51.964;7.628;2023-04-03T05:08:23;1.90;99.90
2999;DHT22;1509;51.964;7.628;2023-04-03T05:10:48;1.40;99.90
2999;DHT22;1509;51.964;7.628;2023-04-03T05:13:14;1.50;99.90
2999;DHT22;1509;51.964;7.628;2023-04-03T05:15:40;1.50;99.90
2999;DHT22;1509;51.964;7.628;2023-04-03T05:18:06;1.40;99.90
2999;DHT22;1509;51.964;7.628;2023-04-03T05:20:32;1.70;99.90
2999;DHT22;1509;51.964;7.628;2023-04-03T05:22:58;1.40;99.90
2999;DHT22;1509;51.964;7.628;2023-04-03T05:25:24;1.40;99.90
2999;DHT22;1509;51.964;7.628;2023-04-03T05:27:50;1.40;99.90
2999;DHT22;1509;51.964;7.628;2023-04-03T05:30:19;1.40;99.90
2999;DHT22;1509;51.964;7.628;2023-04-03T05:32:44;1.40;99.90
2999;DHT22;1509;51.964;7.628;2023-04-03T05:35:11;1.40;99.90
2999;DHT22;1509;51.964;7.628;2023-04-03T05:37:36;1.40;99.90
2999;DHT22;1509;51.964;7.628;2023-04-03T05:40:03;1.40;99.90
2999;DHT22;1509;51.964;7.628;2023-04-03T05:42:29;1.40;99.90
2999;DHT22;1509;51.964;7.628;2023-04-03T05:44:57;1.40;99.90
2999;DHT22;1509;51.964;7.628;2023-04-03T05:47:23;1.40;99.90
2999;DHT22;1509;51.964;7.628;2023-04-03T05:49:49;1.70;99.90
2999;DHT22;1509;51.964;7.628;2023-04-03T05:54:47;1.50;99.90
2999;DHT22;1509;51.964;7.628;2023-04-03T05:57:14;1.50;99.90
2999;DHT22;1509;51.964;7.628;2023-04-03T05:59:42;1.50;99.90
2999;DHT22;1509;51.964;7.628;2023-04-03T06:02:11;1.50;99.90
2999;DHT22;1509;51.964;7.628;2023-04-03T06:04:37;1.60;99.90
2999;DHT22;1509;51.964;7.628;2023-04-03T06:07:03;1.60;99.90
2999;DHT22;1509;51.964;7.628;2023-04-03T06:09:30;1.80;99.90
2999;DHT22;1509;51.964;7.628;2023-04-03T06:11:56;2.00;99.90
2999;DHT22;1509;51.964;7.628;2023-04-03T06:14:24;2.20;99.90
2999;DHT22;1509;51.964;7.628;2023-04-03T06:16:51;2.20;99.90
2999;DHT22;1509;51.964;7.628;2023-04-03T06:19:17;2.40;99.90
2999;DHT22;1509;51.964;7.628;2023-04-03T06:21:42;2.20;99.90
2999;DHT22;1509;51.964;7.628;2023-04-03T06:24:09;2.20;99.90
2999;DHT22;1509;51.964;7.628;2023-04-03T06:26:37;2.10;99.90
2999;DHT22;1509;51.964;7.628;2023-04-03T06:29:05;2.10;99.90
2999;DHT22;1509;51.964;7.628;2023-04-03T06:31:31;2.10;99.90
2999;DHT22;1509;51.964;7.628;2023-04-03T06:33:57;2.10;99.90
2999;DHT22;1509;51.964;7.628;2023-04-03T06:36:23;2.40;99.90
2999;DHT22;1509;51.964;7.628;2023-04-03T06:38:48;2.20;99.90
2999;DHT22;1509;51.964;7.628;2023-04-03T06:41:16;2.30;99.90
2999;DHT22;1509;51.964;7.628;2023-04-03T06:43:43;2.30;99.90
2999;DHT22;1509;51.964;7.628;2023-04-03T06:46:17;2.50;99.90
2999;DHT22;1509;51.964;7.628;2023-04-03T06:48:43;2.60;99.90
2999;DHT22;1509;51.964;7.628;2023-04-03T06:53:42;2.70;99.90
2999;DHT22;1509;51.964;7.628;2023-04-03T06:56:08;2.80;99.90
2999;DHT22;1509;51.964;7.628;2023-04-03T07:32:46;3.60;99.90
2999;DHT22;1509;51.964;7.628;2023-04-03T07:35:15;3.60;99.90
2999;DHT22;1509;51.964;7.628;2023-04-03T07:37:42;3.70;99.90
2999;DHT22;1509;51.964;7.628;2023-04-03T07:40:08;3.80;99.90
2999;DHT22;1509;51.964;7.628;2023-04-03T07:42:34;3.80;99.90
2999;DHT22;1509;51.964;7.628;2023-04-03T07:45:04;3.90;99.90
2999;DHT22;1509;51.964;7.628;2023-04-03T07:47:30;4.00;99.90
2999;DHT22;1509;51.964;7.628;2023-04-03T07:49:56;4.00;99.90
2999;DHT22;1509;51.964;7.628;2023-04-03T07:52:23;4.00;99.90
2999;DHT22;1509;51.964;7.628;2023-04-03T07:54:49;4.10;99.90
2999;DHT22;1509;51.964;7.628;2023-04-03T07:57:17;4.10;99.90
2999;DHT22;1509;51.964;7.628;2023-04-03T08:09:40;4.60;99.90
2999;DHT22;1509;51.964;7.628;2023-04-03T08:12:10;4.60;99.90
2999;DHT22;1509;51.964;7.628;2023-04-03T08:14:37;4.70;99.90
2999;DHT22;1509;51.964;7.628;2023-04-03T08:17:03;4.70;99.90
2999;DHT22;1509;51.964;7.628;2023-04-03T08:19:30;4.80;99.90
2999;DHT22;1509;51.964;7.628;2023-04-03T08:21:56;4.90;99.90
2999;DHT22;1509;51.964;7.628;2023-04-03T08:24:24;5.20;99.90
2999;DHT22;1509;51.964;7.628;2023-04-03T08:26:50;5.30;99.90
2999;DHT22;1509;51.964;7.628;2023-04-03T08:29:16;5.50;99.90
2999;DHT22;1509;51.964;7.628;2023-04-03T08:31:43;5.70;99.90
2999;DHT22;1509;51.964;7.628;2023-04-03T08:34:10;6.30;99.90
2999;DHT22;1509;51.964;7.628;2023-04-03T08:36:37;7.00;99.90
2999;DHT22;1509;51.964;7.628;2023-04-03T08:39:03;8.30;99.90
2999;DHT22;1509;51.964;7.628;2023-04-03T08:41:43;9.70;99.90
2999;DHT22;1509;51.964;7.628;2023-04-03T08:44:38;11.40;99.90
2999;DHT22;1509;51.964;7.628;2023-04-03T08:47:18;12.30;99.90
2999;DHT22;1509;51.964;7.628;2023-04-03T08:49:49;12.60;99.90
2999;DHT22;1509;51.964;7.628;2023-04-03T08:52:41;12.80;99.90
2999;DHT22;1509;51.964;7.628;2023-04-03T08:58:26;12.30;99.90
2999;DHT22;1509;51.964;7.628;2023-04-03T09:03:50;13.50;99.90
2999;DHT22;1509;51.964;7.628;2023-04-03T09:06:26;14.50;99.90
2999;DHT22;1509;51.964;7.628;2023-04-03T09:09:15;15.00;99.90
2999;DHT22;1509;51.964;7.628;2023-04-03T09:12:11;14.50;99.90
2999;DHT22;1509;51.964;7.628;2023-04-03T09:17:53;14.60;99.90
2999;DHT22;1509;51.964;7.628;2023-04-03T09:20:45;14.80;99.90
2999;DHT22;1509;51.964;7.628;2023-04-03T09:23:19;14.70;99.90
2999;DHT22;1509;51.964;7.628;2023-04-03T09:25:47;14.70;99.90
2999;DHT22;1509;51.964;7.628;2023-04-03T09:28:14;15.00;99.90
2999;DHT22;1509;51.964;7.628;2023-04-03T09:30:40;15.30;99.90
2999;DHT22;1509;51.964;7.628;2023-04-03T09:33:08;15.30;99.90
2999;DHT22;1509;51.964;7.628;2023-04-03T09:35:36;15.00;99.90
2999;DHT22;1509;51.964;7.628;2023-04-03T09:40:42;14.60;99.30
2999;DHT22;1509;51.964;7.628;2023-04-03T09:45:44;15.50;98.00
2999;DHT22;1509;51.964;7.628;2023-04-03T09:50:54;16.20;97.60
2999;DHT22;1509;51.964;7.628;2023-04-03T09:53:44;15.80;96.40
2999;DHT22;1509;51.964;7.628;2023-04-03T09:56:20;16.00;98.00
2999;DHT22;1509;51.964;7.628;2023-04-03T09:59:12;16.40;96.60
2999;DHT22;1509;51.964;7.628;2023-04-03T10:01:43;16.70;95.60
2999;DHT22;1509;51.964;7.628;2023-04-03T10:04:17;16.80;95.30
2999;DHT22;1509;51.964;7.628;2023-04-03T10:06:54;16.40;96.40
2999;DHT22;1509;51.964;7.628;2023-04-03T10:09:29;16.00;94.20
2999;DHT22;1509;51.964;7.628;2023-04-03T10:12:11;15.80;96.10
2999;DHT22;1509;51.964;7.628;2023-04-03T10:22:46;14.20;93.00
2999;DHT22;1509;51.964;7.628;2023-04-03T10:35:57;14.60;93.40
2999;DHT22;1509;51.964;7.628;2023-04-03T10:41:46;15.70;94.50
2999;DHT22;1509;51.964;7.628;2023-04-03T10:44:15;17.00;93.80
2999;DHT22;1509;51.964;7.628;2023-04-03T10:47:04;17.60;93.30
2999;DHT22;1509;51.964;7.628;2023-04-03T10:54:49;17.70;93.00
2999;DHT22;1509;51.964;7.628;2023-04-03T10:57:18;16.90;90.10
2999;DHT22;1509;51.964;7.628;2023-04-03T10:59:51;16.60;91.40
2999;DHT22;1509;51.964;7.628;2023-04-03T11:02:34;16.90;92.50
2999;DHT22;1509;51.964;7.628;2023-04-03T11:05:17;18.10;92.70
2999;DHT22;1509;51.964;7.628;2023-04-03T11:07:51;17.30;92.00
2999;DHT22;1509;51.964;7.628;2023-04-03T11:10:25;15.60;90.90
2999;DHT22;1509;51.964;7.628;2023-04-03T11:13:01;14.60;92.60
2999;DHT22;1509;51.964;7.628;2023-04-03T11:15:32;14.50;92.70
2999;DHT22;1509;51.964;7.628;2023-04-03T11:18:02;13.00;92.20
2999;DHT22;1509;51.964;7.628;2023-04-03T11:20:32;13.10;93.70
2999;DHT22;1509;51.964;7.628;2023-04-03T11:25:50;14.90;93.60
2999;DHT22;1509;51.964;7.628;2023-04-03T11:28:21;15.50;95.70
2999;DHT22;1509;51.964;7.628;2023-04-03T11:36:19;17.20;93.60
2999;DHT22;1509;51.964;7.628;2023-04-03T11:38:56;17.40;94.50
2999;DHT22;1509;51.964;7.628;2023-04-03T11:41:29;16.30;93.20
2999;DHT22;1509;51.964;7.628;2023-04-03T11:49:57;13.70;94.20
2999;DHT22;1509;51.964;7.628;2023-04-03T12:35:10;13.70;94.70
2999;DHT22;1509;51.964;7.628;2023-04-03T12:45:44;16.70;94.00
2999;DHT22;1509;51.964;7.628;2023-04-03T12:48:18;16.40;93.10
2999;DHT22;1509;51.964;7.628;2023-04-03T12:50:48;16.00;94.70
2999;DHT22;1509;51.964;7.628;2023-04-03T12:55:43;16.70;95.30
2999;DHT22;1509;51.964;7.628;2023-04-03T12:58:21;17.30;94.20
2999;DHT22;1509;51.964;7.628;2023-04-03T13:00:53;17.90;94.40
2999;DHT22;1509;51.964;7.628;2023-04-03T13:03:25;17.80;93.30
2999;DHT22;1509;51.964;7.628;2023-04-03T13:05:57;17.00;94.60
2999;DHT22;1509;51.964;7.628;2023-04-03T13:08:27;16.40;94.60
2999;DHT22;1509;51.964;7.628;2023-04-03T13:10:58;15.20;94.80
2999;DHT22;1509;51.964;7.628;2023-04-03T13:13:26;14.30;95.40
2999;DHT22;1509;51.964;7.628;2023-04-03T13:15:52;13.80;96.30
2999;DHT22;1509;51.964;7.628;2023-04-03T13:18:31;13.50;95.50
2999;DHT22;1509;51.964;7.628;2023-04-03T13:25:53;12.40;94.40
2999;DHT22;1509;51.964;7.628;2023-04-03T13:28:23;12.80;97.40
2999;DHT22;1509;51.964;7.628;2023-04-03T13:33:25;13.00;93.70
2999;DHT22;1509;51.964;7.628;2023-04-03T13:36:24;13.00;94.80
2999;DHT22;1509;51.964;7.628;2023-04-03T13:39:07;13.00;95.90
2999;DHT22;1509;51.964;7.628;2023-04-03T13:42:16;13.60;95.40
2999;DHT22;1509;51.964;7.628;2023-04-03T13:44:43;13.40;94.90
2999;DHT22;1509;51.964;7.628;2023-04-03T13:50:00;12.70;95.30
2999;DHT22;1509;51.964;7.628;2023-04-03T13:52:40;13.00;95.40
2999;DHT22;1509;51.964;7.628;2023-04-03T14:03:21;13.50;95.70
2999;DHT22;1509;51.964;7.628;2023-04-03T14:05:48;13.50;95.30
2999;DHT22;1509;51.964;7.628;2023-04-03T14:08:14;13.50;95.00
2999;DHT22;1509;51.964;7.628;2023-04-03T14:10:43;13.40;95.30
2999;DHT22;1509;51.964;7.628;2023-04-03T14:13:12;13.50;96.00
2999;DHT22;1509;51.964;7.628;2023-04-03T14:15:39;13.30;95.70
2999;DHT22;1509;51.964;7.628;2023-04-03T14:18:05;13.20;96.10
2999;DHT22;1509;51.964;7.628;2023-04-03T14:20:31;12.70;96.30
2999;DHT22;1509;51.964;7.628;2023-04-03T14:23:00;12.80;96.60
2999;DHT22;1509;51.964;7.628;2023-04-03T14:25:29;12.90;96.30
2999;DHT22;1509;51.964;7.628;2023-04-03T14:27:55;12.70;96.20
2999;DHT22;1509;51.964;7.628;2023-04-03T14:30:27;12.40;96.80
2999;DHT22;1509;51.964;7.628;2023-04-03T14:32:54;12.40;97.00
2999;DHT22;1509;51.964;7.628;2023-04-03T14:35:20;12.30;96.50
2999;DHT22;1509;51.964;7.628;2023-04-03T14:37:46;12.50;96.60
2999;DHT22;1509;51.964;7.628;2023-04-03T14:40:17;12.70;96.80
2999;DHT22;1509;51.964;7.628;2023-04-03T14:42:44;12.60;96.20
2999;DHT22;1509;51.964;7.628;2023-04-03T14:45:12;12.30;96.40
2999;DHT22;1509;51.964;7.628;2023-04-03T14:47:56;11.90;96.50
2999;DHT22;1509;51.964;7.628;2023-04-03T14:50:26;11.60;96.20
2999;DHT22;1509;51.964;7.628;2023-04-03T14:52:55;11.50;96.60
2999;DHT22;1509;51.964;7.628;2023-04-03T14:55:22;11.60;96.30
2999;DHT22;1509;51.964;7.628;2023-04-03T14:57:49;11.60;96.50
2999;DHT22;1509;51.964;7.628;2023-04-03T15:00:17;11.60;95.60
2999;DHT22;1509;51.964;7.628;2023-04-03T15:02:44;11.30;96.10
2999;DHT22;1509;51.964;7.628;2023-04-03T15:05:11;11.30;96.30
2999;DHT22;1509;51.964;7.628;2023-04-03T15:07:54;11.60;96.50
2999;DHT22;1509;51.964;7.628;2023-04-03T15:10:24;11.80;97.50
2999;DHT22;1509;51.964;7.628;2023-04-03T15:12:51;11.50;98.70
2999;DHT22;1509;51.964;7.628;2023-04-03T15:15:19;11.40;96.60
2999;DHT22;1509;51.964;7.628;2023-04-03T15:17:51;11.40;96.50
2999;DHT22;1509;51.964;7.628;2023-04-03T15:20:22;11.60;96.90
2999;DHT22;1509;51.964;7.628;2023-04-03T15:22:50;11.90;97.10
2999;DHT22;1509;51.964;7.628;2023-04-03T15:25:16;12.10;97.30
2999;DHT22;1509;51.964;7.628;2023-04-03T15:27:42;12.10;97.20
2999;DHT22;1509;51.964;7.628;2023-04-03T15:30:14;12.00;97.20
2999;DHT22;1509;51.964;7.628;2023-04-03T15:32:40;12.00;97.60
2999;DHT22;1509;51.964;7.628;2023-04-03T15:35:06;11.90;97.30
2999;DHT22;1509;51.964;7.628;2023-04-03T15:37:32;11.80;97.20
2999;DHT22;1509;51.964;7.628;2023-04-03T15:39:58;11.50;97.00
2999;DHT22;1509;51.964;7.628;2023-04-03T15:42:24;11.40;96.90
2999;DHT22;1509;51.964;7.628;2023-04-03T15:44:49;11.20;97.20
2999;DHT22;1509;51.964;7.628;2023-04-03T15:47:15;11.30;97.10
2999;DHT22;1509;51.964;7.628;2023-04-03T15:49:41;11.40;97.10
2999;DHT22;1509;51.964;7.628;2023-04-03T15:52:10;11.40;97.10
2999;DHT22;1509;51.964;7.628;2023-04-03T15:54:35;11.30;96.70
2999;DHT22;1509;51.964;7.628;2023-04-03T15:57:01;11.30;97.20
2999;DHT22;1509;51.964;7.628;2023-04-03T15:59:29;11.30;97.10
2999;DHT22;1509;51.964;7.628;2023-04-03T16:01:59;11.50;97.30
2999;DHT22;1509;51.964;7.628;2023-04-03T16:04:25;12.00;96.60
2999;DHT22;1509;51.964;7.628;2023-04-03T16:06:51;11.50;96.40
2999;DHT22;1509;51.964;7.628;2023-04-03T16:09:17;11.50;97.40
2999;DHT22;1509;51.964;7.628;2023-04-03T16:11:43;11.50;96.60
2999;DHT22;1509;51.964;7.628;2023-04-03T16:14:09;11.30;96.30
2999;DHT22;1509;51.964;7.628;2023-04-03T16:16:35;11.00;96.40
2999;DHT22;1509;51.964;7.628;2023-04-03T16:21:28;10.60;96.90
2999;DHT22;1509;51.964;7.628;2023-04-03T16:23:56;10.60;96.90
2999;DHT22;1509;51.964;7.628;2023-04-03T16:26:22;10.60;97.60
2999;DHT22;1509;51.964;7.628;2023-04-03T16:28:48;10.60;97.50
2999;DHT22;1509;51.964;7.628;2023-04-03T16:31:13;10.60;96.90
2999;DHT22;1509;51.964;7.628;2023-04-03T16:33:39;10.50;97.10
2999;DHT22;1509;51.964;7.628;2023-04-03T16:36:05;10.50;97.80
2999;DHT22;1509;51.964;7.628;2023-04-03T16:38:31;10.30;97.00
2999;DHT22;1509;51.964;7.628;2023-04-03T16:40:57;10.20;97.90
2999;DHT22;1509;51.964;7.628;2023-04-03T16:43:25;10.10;97.30
2999;DHT22;1509;51.964;7.628;2023-04-03T16:45:51;9.90;98.10
2999;DHT22;1509;51.964;7.628;2023-04-03T16:48:19;9.80;98.30
2999;DHT22;1509;51.964;7.628;2023-04-03T16:50:48;9.70;98.20
2999;DHT22;1509;51.964;7.628;2023-04-03T16:53:16;9.80;99.00
2999;DHT22;1509;51.964;7.628;2023-04-03T16:55:44;9.80;98.10
2999;DHT22;1509;51.964;7.628;2023-04-03T16:58:12;10.10;97.80
2999;DHT22;1509;51.964;7.628;2023-04-03T17:00:38;9.90;99.00
2999;DHT22;1509;51.964;7.628;2023-04-03T17:03:04;9.80;99.10
2999;DHT22;1509;51.964;7.628;2023-04-03T17:05:29;9.80;98.20
2999;DHT22;1509;51.964;7.628;2023-04-03T17:07:58;9.70;98.40
2999;DHT22;1509;51.964;7.628;2023-04-03T17:10:24;9.60;98.40
2999;DHT22;1509;51.964;7.628;2023-04-03T17:12:50;9.50;98.40
2999;DHT22;1509;51.964;7.628;2023-04-03T17:15:19;9.50;98.50
2999;DHT22;1509;51.964;7.628;2023-04-03T17:17:46;9.50;98.80
2999;DHT22;1509;51.964;7.628;2023-04-03T17:20:12;9.30;98.80
2999;DHT22;1509;51.964;7.628;2023-04-03T17:22:38;9.30;98.80
2999;DHT22;1509;51.964;7.628;2023-04-03T17:25:04;9.20;98.60
2999;DHT22;1509;51.964;7.628;2023-04-03T17:27:30;9.10;98.60
2999;DHT22;1509;51.964;7.628;2023-04-03T17:29:56;9.10;99.10
2999;DHT22;1509;51.964;7.628;2023-04-03T17:32:21;9.10;99.20
2999;DHT22;1509;51.964;7.628;2023-04-03T17:34:48;9.10;99.30
2999;DHT22;1509;51.964;7.628;2023-04-03T17:37:13;9.10;99.40
2999;DHT22;1509;51.964;7.628;2023-04-03T17:39:39;9.00;99.80
2999;DHT22;1509;51.964;7.628;2023-04-03T17:42:05;8.90;98.90
2999;DHT22;1509;51.964;7.628;2023-04-03T17:44:30;8.80;98.90
2999;DHT22;1509;51.964;7.628;2023-04-03T17:46:56;8.70;99.10
2999;DHT22;1509;51.964;7.628;2023-04-03T17:49:22;8.70;99.50
2999;DHT22;1509;51.964;7.628;2023-04-03T17:51:50;8.60;99.60
2999;DHT22;1509;51.964;7.628;2023-04-03T17:54:16;8.60;99.70
2999;DHT22;1509;51.964;7.628;2023-04-03T17:56:42;8.60;99.90
2999;DHT22;1509;51.964;7.628;2023-04-03T17:59:15;8.60;99.90
2999;DHT22;1509;51.964;7.628;2023-04-03T18:01:43;8.60;99.90
2999;DHT22;1509;51.964;7.628;2023-04-03T18:04:09;8.50;99.90
2999;DHT22;1509;51.964;7.628;2023-04-03T18:06:49;8.40;99.90
2999;DHT22;1509;51.964;7.628;2023-04-03T18:09:16;8.50;99.90
2999;DHT22;1509;51.964;7.628;2023-04-03T18:11:46;8.40;99.90
2999;DHT22;1509;51.964;7.628;2023-04-03T18:14:13;8.30;99.90
2999;DHT22;1509;51.964;7.628;2023-04-03T18:16:39;8.10;99.90
2999;DHT22;1509;51.964;7.628;2023-04-03T18:19:08;8.20;99.90
2999;DHT22;1509;51.964;7.628;2023-04-03T18:21:35;8.10;99.90
2999;DHT22;1509;51.964;7.628;2023-04-03T18:24:03;8.10;99.90
2999;DHT22;1509;51.964;7.628;2023-04-03T18:26:29;8.10;99.90
2999;DHT22;1509;51.964;7.628;2023-04-03T18:29:03;7.90;99.90
2999;DHT22;1509;51.964;7.628;2023-04-03T18:31:33;7.90;99.90
2999;DHT22;1509;51.964;7.628;2023-04-03T18:34:00;7.80;99.90
2999;DHT22;1509;51.964;7.628;2023-04-03T18:36:26;7.80;99.90
2999;DHT22;1509;51.964;7.628;2023-04-03T18:38:55;7.80;99.90
2999;DHT22;1509;51.964;7.628;2023-04-03T18:41:23;7.80;99.90
2999;DHT22;1509;51.964;7.628;2023-04-03T18:43:55;7.80;99.90
2999;DHT22;1509;51.964;7.628;2023-04-03T18:46:21;7.70;99.90
2999;DHT22;1509;51.964;7.628;2023-04-03T18:48:47;7.60;99.90
2999;DHT22;1509;51.964;7.628;2023-04-03T18:51:13;7.80;99.90
2999;DHT22;1509;51.964;7.628;2023-04-03T18:53:39;7.70;99.90
2999;DHT22;1509;51.964;7.628;2023-04-03T18:56:05;7.70;99.90
2999;DHT22;1509;51.964;7.628;2023-04-03T18:58:31;7.70;99.90
2999;DHT22;1509;51.964;7.628;2023-04-03T19:00:59;7.60;99.90
2999;DHT22;1509;51.964;7.628;2023-04-03T19:03:25;7.60;99.90
2999;DHT22;1509;51.964;7.628;2023-04-03T19:05:52;7.60;99.90
2999;DHT22;1509;51.964;7.628;2023-04-03T19:08:17;7.60;99.90
2999;DHT22;1509;51.964;7.628;2023-04-03T19:10:43;7.50;99.90
2999;DHT22;1509;51.964;7.628;2023-04-03T19:13:09;7.40;99.90
2999;DHT22;1509;51.964;7.628;2023-04-03T19:15:37;7.40;99.90
2999;DHT22;1509;51.964;7.628;2023-04-03T19:18:03;7.40;99.90
2999;DHT22;1509;51.964;7.628;2023-04-03T19:20:29;7.30;99.90
2999;DHT22;1509;51.964;7.628;2023-04-03T19:22:54;7.30;99.90
2999;DHT22;1509;51.964;7.628;2023-04-03T19:25:20;7.30;99.90
2999;DHT22;1509;51.964;7.628;2023-04-03T19:27:46;7.20;99.90